createdAt,value
2018-05-10T00:02:03.931Z,81.59
2018-05-10T00:04:32.933Z,82.04
2018-05-10T00:07:01.184Z,81.65
2018-05-10T00:09:29.415Z,81.56
2018-05-10T00:11:58.419Z,80.95
2018-05-10T00:14:27.456Z,80.25
2018-05-10T00:16:55.684Z,81.29
2018-05-10T00:19:23.943Z,82.56
2018-05-10T00:21:52.175Z,81.74
2018-05-10T00:24:20.502Z,81.64
2018-05-10T00:26:48.707Z,81.92
2018-05-10T00:29:16.987Z,81.23
2018-05-10T00:31:45.230Z,80.00
2018-05-10T00:34:13.489Z,79.98
2018-05-10T00:36:41.726Z,79.83
2018-05-10T00:39:09.975Z,80.93
2018-05-10T00:41:38.987Z,80.85
2018-05-10T00:44:07.248Z,79.55
2018-05-10T00:46:35.487Z,77.90
2018-05-10T00:49:03.739Z,77.75
2018-05-10T00:51:31.981Z,79.45
2018-05-10T00:54:00.249Z,79.75
2018-05-10T00:56:28.482Z,78.89
2018-05-10T00:58:56.731Z,79.82
2018-05-10T01:01:24.988Z,80.13
2018-05-10T01:03:53.259Z,80.90
2018-05-10T01:06:21.515Z,80.77
2018-05-10T01:08:49.763Z,81.10
2018-05-10T01:11:18.007Z,81.31
2018-05-10T01:13:46.260Z,81.68
2018-05-10T01:16:14.503Z,81.69
2018-05-10T01:18:42.763Z,80.47
2018-05-10T01:21:11.775Z,80.83
2018-05-10T01:23:40.799Z,79.67
2018-05-10T01:26:09.034Z,78.53
2018-05-10T01:28:37.287Z,78.29
2018-05-10T01:31:06.282Z,79.59
2018-05-10T01:33:34.547Z,79.55
2018-05-10T01:36:16.411Z,80.47
2018-05-10T01:38:44.655Z,79.02
2018-05-10T01:41:12.887Z,79.19
2018-05-10T01:43:41.149Z,78.55
2018-05-10T01:46:09.381Z,78.60
2018-05-10T01:48:37.624Z,79.27
2018-05-10T01:51:05.891Z,79.33
2018-05-10T01:53:34.882Z,79.34
2018-05-10T01:56:03.898Z,77.53
2018-05-10T01:58:33.803Z,76.11
2018-05-10T02:01:02.063Z,73.51
2018-05-10T02:03:30.323Z,73.90
2018-05-10T02:05:59.322Z,75.33
2018-05-10T02:08:27.565Z,74.53
2018-05-10T02:10:56.587Z,78.80
2018-05-10T02:13:24.826Z,78.19
2018-05-10T02:15:53.075Z,77.60
2018-05-10T02:18:22.067Z,76.18
2018-05-10T02:20:50.326Z,75.17
2018-05-10T02:23:18.597Z,74.75
2018-05-10T02:25:46.838Z,75.51
2018-05-10T02:28:15.066Z,74.25
2018-05-10T02:30:43.307Z,76.24
2018-05-10T02:33:11.535Z,76.95
2018-05-10T02:35:39.787Z,77.06
2018-05-10T02:38:08.019Z,76.77
2018-05-10T02:40:36.278Z,76.29
2018-05-10T02:43:05.322Z,76.88
2018-05-10T02:45:33.568Z,76.52
2018-05-10T02:48:01.800Z,77.15
2018-05-10T02:50:30.055Z,77.32
2018-05-10T02:52:59.061Z,76.84
2018-05-10T02:55:28.078Z,77.72
2018-05-10T02:57:57.080Z,76.80
2018-05-10T03:00:26.105Z,77.64
2018-05-10T03:02:54.336Z,77.01
2018-05-10T03:05:22.591Z,77.44
2018-05-10T03:07:50.851Z,76.40
2018-05-10T03:10:19.885Z,77.89
2018-05-10T03:12:48.161Z,77.86
2018-05-10T03:15:16.412Z,78.33
2018-05-10T03:17:44.657Z,78.67
2018-05-10T03:20:12.887Z,77.40
2018-05-10T03:22:41.143Z,76.88
2018-05-10T03:25:09.383Z,75.39
2018-05-10T03:27:38.405Z,74.91
2018-05-10T03:30:06.635Z,74.43
2018-05-10T03:32:34.890Z,74.83
2018-05-10T03:35:03.134Z,75.28
2018-05-10T03:37:31.406Z,75.09
2018-05-10T03:39:59.647Z,75.46
2018-05-10T03:42:28.655Z,75.13
2018-05-10T03:44:56.886Z,74.41
2018-05-10T03:47:25.137Z,74.58
2018-05-10T03:49:53.398Z,74.96
2018-05-10T03:52:22.420Z,74.36
2018-05-10T03:54:51.418Z,75.01
2018-05-10T03:57:20.444Z,75.21
2018-05-10T03:59:48.683Z,75.17
2018-05-10T04:02:16.953Z,74.78
2018-05-10T04:05:02.986Z,75.47
2018-05-10T04:10:56.531Z,75.98
2018-05-10T04:13:25.542Z,76.82
2018-05-10T04:15:54.534Z,76.97
2018-05-10T04:18:22.826Z,77.91
2018-05-10T04:20:51.833Z,77.83
2018-05-10T04:23:20.101Z,77.71
2018-05-10T04:25:48.351Z,77.31
2018-05-10T04:28:16.600Z,77.03
2018-05-10T04:30:45.594Z,76.05
2018-05-10T04:33:13.944Z,75.33
2018-05-10T04:35:42.246Z,73.47
2018-05-10T04:38:10.424Z,72.17
2018-05-10T04:40:39.482Z,71.96
2018-05-10T04:43:08.494Z,72.59
2018-05-10T04:45:37.499Z,70.25
2018-05-10T04:48:06.898Z,70.46
2018-05-10T04:50:35.128Z,71.54
2018-05-10T04:53:03.384Z,70.96
2018-05-10T04:55:31.610Z,71.63
2018-05-10T04:57:59.854Z,70.73
2018-05-10T05:00:28.088Z,72.33
2018-05-10T05:02:56.343Z,71.90
2018-05-10T05:05:25.343Z,71.80
2018-05-10T05:07:53.594Z,73.12
2018-05-10T05:10:21.827Z,73.99
2018-05-10T05:12:50.839Z,73.79
2018-05-10T05:15:19.098Z,73.55
2018-05-10T05:17:47.343Z,70.11
2018-05-10T05:20:15.594Z,67.08
2018-05-10T05:22:44.601Z,68.28
2018-05-10T05:25:13.635Z,65.27
2018-05-10T05:27:41.871Z,63.99
2018-05-10T05:30:10.113Z,62.41
2018-05-10T05:32:38.394Z,62.73
2018-05-10T05:35:07.384Z,64.77
2018-05-10T05:37:36.381Z,61.18
2018-05-10T05:40:04.687Z,60.41
2018-05-10T05:42:33.793Z,59.70
2018-05-10T05:45:02.822Z,58.16
2018-05-10T05:47:31.087Z,58.93
2018-05-10T05:50:00.113Z,60.92
2018-05-10T05:52:28.375Z,59.06
2018-05-10T05:54:57.409Z,62.89
2018-05-10T05:57:26.403Z,64.31
2018-05-10T05:59:55.431Z,65.79
2018-05-10T06:02:23.665Z,67.06
2018-05-10T06:04:51.913Z,66.01
2018-05-10T06:07:20.214Z,68.19
2018-05-10T06:09:48.473Z,70.57
2018-05-10T06:12:16.746Z,68.33
2018-05-10T06:14:45.765Z,67.66
2018-05-10T06:17:14.019Z,68.28
2018-05-10T06:19:43.149Z,65.51
2018-05-10T06:22:12.162Z,65.19
2018-05-10T06:24:41.259Z,66.42
2018-05-10T06:27:09.426Z,66.45
2018-05-10T06:29:37.742Z,67.91
2018-05-10T06:32:06.738Z,66.15
2018-05-10T06:34:35.748Z,66.19
2018-05-10T06:37:04.803Z,64.40
2018-05-10T06:39:33.043Z,66.04
2018-05-10T06:42:02.159Z,65.81
2018-05-10T06:44:31.163Z,63.58
2018-05-10T06:47:00.294Z,57.25
2018-05-10T06:49:29.299Z,58.17
2018-05-10T06:51:57.575Z,59.17
2018-05-10T06:54:26.578Z,59.39
2018-05-10T06:56:55.987Z,59.18
2018-05-10T06:59:25.039Z,60.58
2018-05-10T07:01:53.299Z,57.77
2018-05-10T07:04:22.396Z,56.33
2018-05-10T07:06:51.407Z,57.77
2018-05-10T07:09:20.546Z,56.23
2018-05-10T07:11:48.691Z,57.68
2018-05-10T07:14:17.718Z,54.66
2018-05-10T07:16:45.967Z,54.68
2018-05-10T07:19:14.188Z,54.06
2018-05-10T07:21:43.203Z,55.64
2018-05-10T07:24:11.460Z,55.36
2018-05-10T07:26:39.711Z,55.74
2018-05-10T07:29:07.944Z,51.67
2018-05-10T07:31:37.724Z,52.28
2018-05-10T07:34:05.959Z,52.38
2018-05-10T07:36:35.090Z,51.18
2018-05-10T07:39:03.331Z,52.57
2018-05-10T07:41:31.643Z,50.89
2018-05-10T07:44:00.638Z,50.17
2018-05-10T07:46:28.901Z,51.20
2018-05-10T07:48:57.131Z,52.26
2018-05-10T07:51:25.366Z,55.00
2018-05-10T07:53:53.603Z,55.21
2018-05-10T07:56:22.722Z,56.36
2018-05-10T07:58:51.816Z,56.62
2018-05-10T08:01:20.124Z,56.52
2018-05-10T08:03:49.118Z,55.52
2018-05-10T08:06:18.134Z,54.94
2018-05-10T08:08:47.161Z,56.05
2018-05-10T08:11:15.424Z,55.51
2018-05-10T08:13:44.455Z,56.57
2018-05-10T08:16:12.692Z,56.94
2018-05-10T08:18:40.943Z,57.07
2018-05-10T08:21:09.175Z,57.12
2018-05-10T08:23:49.077Z,57.90
2018-05-10T08:26:17.354Z,57.67
2018-05-10T08:28:46.380Z,58.34
2018-05-10T08:31:14.605Z,56.69
2018-05-10T08:33:42.852Z,56.11
2018-05-10T08:36:11.093Z,55.13
2018-05-10T08:38:39.406Z,55.61
2018-05-10T08:41:08.393Z,55.77
2018-05-10T08:43:36.640Z,53.20
2018-05-10T08:46:05.638Z,56.12
2018-05-10T08:48:33.897Z,56.30
2018-05-10T08:51:02.957Z,56.92
2018-05-10T08:53:31.196Z,57.23
2018-05-10T08:56:00.564Z,55.65
2018-05-10T08:58:28.822Z,55.14
2018-05-10T09:00:57.062Z,53.04
2018-05-10T09:03:25.319Z,54.01
2018-05-10T09:05:53.552Z,54.74
2018-05-10T09:08:21.806Z,54.73
2018-05-10T09:10:50.048Z,56.15
2018-05-10T09:13:19.118Z,55.55
2018-05-10T09:15:47.362Z,56.92
2018-05-10T09:18:15.628Z,54.99
2018-05-10T09:20:44.636Z,53.68
2018-05-10T09:23:13.668Z,53.64
2018-05-10T09:25:41.902Z,54.03
2018-05-10T09:28:10.167Z,53.65
2018-05-10T09:30:39.162Z,54.78
2018-05-10T09:33:07.398Z,56.24
2018-05-10T09:35:36.430Z,55.32
2018-05-10T09:38:04.687Z,55.51
2018-05-10T09:40:32.955Z,54.87
2018-05-10T09:43:01.252Z,54.13
2018-05-10T09:45:29.459Z,56.33
2018-05-10T09:47:57.759Z,57.55
2018-05-10T09:50:26.779Z,58.97
2018-05-10T09:52:55.783Z,57.99
2018-05-10T09:55:25.398Z,59.12
2018-05-10T09:57:54.412Z,58.98
2018-05-10T10:00:29.743Z,60.95
2018-05-10T10:02:57.980Z,62.32
2018-05-10T10:05:27.001Z,62.08
2018-05-10T10:07:55.247Z,60.21
2018-05-10T10:10:25.061Z,58.76
2018-05-10T10:12:53.255Z,57.94
2018-05-10T10:15:22.271Z,57.79
2018-05-10T10:17:51.271Z,57.90
2018-05-10T10:20:20.305Z,55.66
2018-05-10T10:22:48.635Z,52.70
2018-05-10T10:25:16.966Z,49.99
2018-05-10T10:27:45.138Z,49.72
2018-05-10T10:30:14.153Z,49.78
2018-05-10T10:32:43.153Z,48.81
2018-05-10T10:35:11.406Z,51.41
2018-05-10T10:37:39.723Z,49.09
2018-05-10T10:40:08.858Z,51.07
2018-05-10T10:42:37.826Z,53.00
2018-05-10T10:45:06.085Z,53.18
2018-05-10T10:47:34.320Z,54.05
2018-05-10T10:50:03.372Z,53.62
2018-05-10T10:52:31.624Z,54.33
2018-05-10T10:55:00.641Z,54.54
2018-05-10T10:57:28.903Z,54.52
2018-05-10T10:59:58.054Z,53.82
2018-05-10T11:02:27.131Z,53.11
2018-05-10T11:04:56.239Z,52.20
2018-05-10T11:07:25.257Z,52.83
2018-05-10T11:09:54.355Z,54.11
2018-05-10T11:12:23.395Z,54.16
2018-05-10T11:14:51.631Z,53.50
2018-05-10T11:17:19.959Z,53.02
2018-05-10T11:19:48.237Z,55.83
2018-05-10T11:22:17.270Z,54.83
2018-05-10T11:24:45.534Z,54.76
2018-05-10T11:27:13.843Z,54.03
2018-05-10T11:29:42.027Z,54.77
2018-05-10T11:32:10.300Z,54.97
2018-05-10T11:34:39.324Z,55.37
2018-05-10T11:37:07.612Z,56.65
2018-05-10T11:39:35.863Z,56.50
2018-05-10T11:42:04.127Z,55.83
2018-05-10T11:44:32.567Z,55.69
2018-05-10T11:47:00.847Z,56.46
2018-05-10T11:49:29.855Z,56.37
2018-05-10T11:51:59.004Z,55.50
2018-05-10T11:54:28.010Z,55.21
2018-05-10T11:56:57.034Z,55.33
2018-05-10T11:59:25.344Z,54.78
2018-05-10T12:01:53.595Z,55.33
2018-05-10T12:04:22.643Z,54.03
2018-05-10T12:06:50.932Z,53.54
2018-05-10T12:09:19.275Z,52.93
2018-05-10T12:11:47.539Z,52.74
2018-05-10T12:14:16.556Z,54.08
2018-05-10T12:16:44.836Z,53.13
2018-05-10T12:19:13.868Z,52.97
2018-05-10T12:21:42.933Z,53.33
2018-05-10T12:24:12.554Z,54.69
2018-05-10T12:26:40.873Z,54.01
2018-05-10T12:29:09.866Z,55.37
2018-05-10T12:31:38.991Z,56.02
2018-05-10T12:34:07.249Z,56.39
2018-05-10T12:36:36.282Z,55.41
2018-05-10T12:39:05.327Z,57.68
2018-05-10T12:41:33.658Z,58.83
2018-05-10T12:44:02.600Z,59.05
2018-05-10T12:46:30.849Z,57.78
2018-05-10T12:48:59.151Z,57.64
2018-05-10T12:51:28.157Z,59.43
2018-05-10T12:53:57.184Z,59.80
2018-05-10T12:56:25.571Z,59.29
2018-05-10T12:58:54.521Z,59.18
2018-05-10T13:01:22.773Z,58.20
2018-05-10T13:03:51.052Z,57.03
2018-05-10T13:06:19.321Z,57.78
2018-05-10T13:08:48.417Z,58.22
2018-05-10T13:11:16.672Z,58.55
2018-05-10T13:13:44.927Z,58.33
2018-05-10T13:16:13.216Z,57.53
2018-05-10T13:18:41.466Z,58.13
2018-05-10T13:21:09.714Z,58.56
2018-05-10T13:23:37.987Z,60.48
2018-05-10T13:26:06.226Z,62.22
2018-05-10T13:28:34.492Z,62.36
2018-05-10T13:31:02.746Z,59.57
2018-05-10T13:33:31.774Z,58.50
2018-05-10T13:36:00.034Z,58.00
2018-05-10T13:38:29.172Z,59.23
2018-05-10T13:40:57.347Z,58.31
2018-05-10T13:43:26.769Z,58.20
2018-05-10T13:45:55.023Z,57.72
2018-05-10T13:48:23.312Z,56.72
2018-05-10T13:50:52.363Z,59.19
2018-05-10T13:53:20.723Z,58.58
2018-05-10T13:55:49.747Z,60.46
2018-05-10T13:58:18.011Z,61.08
2018-05-10T14:00:47.074Z,62.03
2018-05-10T14:03:15.324Z,63.37
2018-05-10T14:05:44.338Z,63.24
2018-05-10T14:08:13.343Z,65.29
2018-05-10T14:10:44.214Z,65.18
2018-05-10T14:13:12.463Z,65.55
2018-05-10T14:15:40.744Z,67.40
2018-05-10T14:18:09.033Z,66.34
2018-05-10T14:20:37.299Z,66.11
2018-05-10T14:23:06.313Z,67.37
2018-05-10T14:25:34.658Z,66.93
2018-05-10T14:28:02.959Z,66.62
2018-05-10T14:30:31.347Z,67.03
2018-05-10T14:32:59.615Z,67.33
2018-05-10T14:35:28.640Z,68.63
2018-05-10T14:37:57.644Z,69.25
2018-05-10T14:40:25.920Z,68.68
2018-05-10T14:42:54.931Z,69.41
2018-05-10T14:45:24.027Z,69.27
2018-05-10T14:47:53.055Z,68.67
2018-05-10T14:50:21.335Z,69.01
2018-05-10T14:52:50.350Z,70.30
2018-05-10T14:55:19.411Z,72.28
2018-05-10T14:57:47.656Z,73.93
2018-05-10T15:00:16.704Z,75.64
2018-05-10T15:02:45.724Z,76.81
2018-05-10T15:05:13.995Z,77.70
2018-05-10T15:07:42.258Z,79.44
2018-05-10T15:10:10.610Z,78.45
2018-05-10T15:12:39.638Z,77.83
2018-05-10T15:15:07.915Z,79.81
2018-05-10T15:17:36.926Z,78.62
2018-05-10T15:20:05.948Z,77.89
2018-05-10T15:22:34.251Z,76.13
2018-05-10T15:25:02.515Z,75.44
2018-05-10T15:27:31.555Z,76.92
2018-05-10T15:29:59.793Z,76.07
2018-05-10T15:32:28.806Z,75.42
2018-05-10T15:34:57.831Z,76.93
2018-05-10T15:37:26.215Z,75.83
2018-05-10T15:39:55.843Z,76.16
2018-05-10T15:42:24.144Z,77.09
2018-05-10T15:44:52.400Z,75.75
2018-05-10T15:47:21.446Z,77.18
2018-05-10T15:49:49.711Z,74.36
2018-05-10T15:52:17.995Z,75.44
2018-05-10T15:54:47.009Z,75.00
2018-05-10T15:57:15.299Z,75.00
2018-05-10T15:59:43.568Z,73.53
2018-05-10T16:02:12.607Z,75.08
2018-05-10T16:04:40.884Z,75.12
2018-05-10T16:07:09.903Z,74.05
2018-05-10T16:09:38.922Z,69.21
2018-05-10T16:12:07.191Z,69.48
2018-05-10T16:14:35.434Z,69.77
2018-05-10T16:17:03.743Z,69.84
2018-05-10T16:19:33.482Z,69.25
2018-05-10T16:22:02.551Z,69.25
2018-05-10T16:24:30.903Z,69.28
2018-05-10T16:26:59.099Z,71.83
2018-05-10T16:29:27.343Z,68.26
2018-05-10T16:31:56.388Z,69.20
2018-05-10T16:34:24.688Z,70.72
2018-05-10T16:36:52.996Z,70.15
2018-05-10T16:39:21.267Z,69.88
2018-05-10T16:41:49.544Z,70.01
2018-05-10T16:44:18.605Z,70.39
2018-05-10T16:46:46.979Z,71.41
2018-05-10T16:49:15.223Z,72.03
2018-05-10T16:51:43.487Z,73.09
2018-05-10T16:54:12.542Z,73.13
2018-05-10T16:56:40.789Z,72.19
2018-05-10T16:59:09.829Z,72.14
2018-05-10T17:01:38.069Z,72.69
2018-05-10T17:04:06.334Z,72.93
2018-05-10T17:06:34.594Z,73.63
2018-05-10T17:09:02.899Z,73.27
2018-05-10T17:11:31.208Z,73.56
2018-05-10T17:13:59.525Z,73.58
2018-05-10T17:16:28.564Z,73.95
2018-05-10T17:18:56.826Z,73.66
2018-05-10T17:21:25.851Z,74.04
2018-05-10T17:23:54.128Z,74.23
2018-05-10T17:26:22.412Z,74.06
2018-05-10T17:28:51.454Z,74.33
2018-05-10T17:31:19.699Z,74.94
2018-05-10T17:33:48.733Z,74.40
2018-05-10T17:36:16.981Z,73.94
2018-05-10T17:38:45.275Z,73.85
2018-05-10T17:41:13.510Z,73.92
2018-05-10T17:43:41.780Z,74.75
2018-05-10T17:46:10.790Z,74.08
2018-05-10T17:48:39.795Z,75.52
2018-05-10T17:51:08.035Z,75.05
2018-05-10T17:53:36.291Z,75.31
2018-05-10T17:56:04.531Z,75.38
2018-05-10T17:58:32.816Z,75.32
2018-05-10T18:01:01.056Z,75.03
2018-05-10T18:03:29.315Z,76.92
2018-05-10T18:05:58.310Z,75.35
2018-05-10T18:08:27.312Z,74.66
2018-05-10T18:10:56.331Z,74.16
2018-05-10T18:13:25.379Z,74.32
2018-05-10T18:15:53.731Z,74.31
2018-05-10T18:18:22.735Z,74.75
2018-05-10T18:20:52.127Z,73.92
2018-05-10T18:23:20.405Z,73.16
2018-05-10T18:25:48.691Z,73.29
2018-05-10T18:28:16.934Z,72.83
2018-05-10T18:30:45.183Z,73.54
2018-05-10T18:33:13.502Z,74.41
2018-05-10T18:35:41.675Z,74.53
2018-05-10T18:38:10.676Z,73.28
2018-05-10T18:40:39.721Z,72.27
2018-05-10T18:43:07.955Z,72.37
2018-05-10T18:45:36.243Z,72.09
2018-05-10T18:48:04.491Z,71.24
2018-05-10T18:50:32.773Z,70.56
2018-05-10T18:53:01.007Z,72.09
2018-05-10T18:55:29.256Z,71.44
2018-05-10T18:57:57.485Z,70.75
2018-05-10T19:00:25.794Z,71.51
2018-05-10T19:02:54.807Z,70.77
2018-05-10T19:05:23.847Z,70.96
2018-05-10T19:07:52.108Z,69.85
2018-05-10T19:10:21.128Z,71.11
2018-05-10T19:12:49.375Z,69.40
2018-05-10T19:15:17.637Z,68.92
2018-05-10T19:17:45.877Z,69.79
2018-05-10T19:20:14.916Z,69.69
2018-05-10T19:22:43.153Z,70.27
2018-05-10T19:27:46.011Z,69.05
2018-05-10T19:30:15.060Z,68.79
2018-05-10T19:32:43.321Z,68.84
2018-05-10T19:35:11.570Z,68.84
2018-05-10T19:37:39.827Z,68.91
2018-05-10T19:40:08.155Z,68.32
2018-05-10T19:42:37.187Z,68.95
2018-05-10T19:45:05.414Z,69.12
2018-05-10T19:47:33.764Z,70.62
2018-05-10T19:50:02.803Z,68.97
2018-05-10T19:52:31.050Z,69.14
2018-05-10T19:55:00.059Z,69.36
2018-05-10T19:57:29.115Z,69.37
2018-05-10T19:59:57.434Z,70.44
2018-05-10T20:02:26.460Z,70.75
2018-05-10T20:04:55.455Z,69.98
2018-05-10T20:07:24.476Z,71.03
2018-05-10T20:09:52.777Z,70.91
2018-05-10T20:12:22.440Z,70.72
2018-05-10T20:14:51.388Z,69.58
2018-05-10T20:17:20.431Z,69.53
2018-05-10T20:19:49.425Z,68.90
2018-05-10T20:22:17.682Z,69.79
2018-05-10T20:24:46.796Z,69.47
2018-05-10T20:27:15.810Z,70.70
2018-05-10T20:29:44.808Z,69.25
2018-05-10T20:32:13.888Z,68.77
2018-05-10T20:34:42.098Z,68.63
2018-05-10T20:37:11.117Z,68.74
2018-05-10T20:39:40.122Z,69.22
2018-05-10T20:42:08.387Z,68.75
2018-05-10T20:44:36.667Z,68.19
2018-05-10T20:47:04.900Z,68.77
2018-05-10T20:49:33.163Z,68.76
2018-05-10T20:52:02.214Z,68.94
2018-05-10T20:54:30.446Z,68.44
2018-05-10T20:56:58.701Z,69.14
2018-05-10T20:59:26.932Z,69.80
2018-05-10T21:01:56.069Z,69.72
2018-05-10T21:04:25.545Z,68.74
2018-05-10T21:06:54.567Z,69.03
2018-05-10T21:09:23.587Z,69.02
2018-05-10T21:11:52.684Z,67.91
2018-05-10T21:14:21.802Z,69.70
2018-05-10T21:16:50.804Z,68.83
2018-05-10T21:19:19.068Z,70.47
2018-05-10T21:21:48.817Z,70.65
2018-05-10T21:24:17.851Z,70.67
2018-05-10T21:26:46.084Z,70.62
2018-05-10T21:29:14.400Z,70.03
2018-05-10T21:31:43.415Z,70.89
2018-05-10T21:34:11.683Z,71.37
2018-05-10T21:36:39.949Z,72.49
2018-05-10T21:39:08.281Z,70.77
2018-05-10T21:41:37.867Z,71.74
2018-05-10T21:44:06.136Z,69.53
2018-05-10T21:46:34.383Z,70.11
2018-05-10T21:49:02.693Z,70.39
2018-05-10T21:51:30.938Z,70.08
2018-05-10T21:53:59.182Z,70.30
2018-05-10T21:56:28.186Z,70.42
2018-05-10T21:58:57.968Z,70.70
2018-05-10T22:01:26.962Z,69.99
2018-05-10T22:03:56.736Z,70.05
2018-05-10T22:06:24.971Z,70.24
2018-05-10T22:08:53.281Z,69.80
2018-05-10T22:11:22.291Z,70.47
2018-05-10T22:13:51.316Z,70.17
2018-05-10T22:16:19.567Z,70.05
2018-05-10T22:18:48.590Z,70.79
2018-05-10T22:21:17.624Z,70.45
2018-05-10T22:23:45.887Z,70.58
2018-05-10T22:26:14.887Z,70.71
2018-05-10T22:28:43.995Z,70.65
2018-05-10T22:31:13.810Z,70.99
2018-05-10T22:33:42.075Z,71.30
2018-05-10T22:36:10.316Z,71.87
2018-05-10T22:38:38.561Z,72.29
2018-05-10T22:41:06.883Z,72.39
2018-05-10T22:43:36.640Z,72.53
2018-05-10T22:46:05.760Z,71.99
2018-05-10T22:48:34.126Z,72.39
2018-05-10T22:51:02.392Z,72.51
2018-05-10T22:53:32.217Z,72.97
2018-05-10T22:56:01.341Z,73.23
2018-05-10T22:58:29.511Z,72.77
2018-05-10T23:00:58.531Z,73.54
2018-05-10T23:03:26.771Z,72.92
2018-05-10T23:05:55.071Z,73.67
2018-05-10T23:08:23.391Z,73.55
2018-05-10T23:10:52.407Z,74.06
2018-05-10T23:13:20.649Z,74.55
2018-05-10T23:15:48.920Z,74.41
2018-05-10T23:18:17.181Z,74.24
2018-05-10T23:20:45.454Z,74.81
2018-05-10T23:23:14.455Z,74.39
2018-05-10T23:25:42.755Z,74.29
2018-05-10T23:28:11.763Z,74.19
2018-05-10T23:30:41.382Z,73.37
2018-05-10T23:33:09.633Z,73.72
2018-05-10T23:35:38.002Z,73.23
2018-05-10T23:38:07.063Z,72.92
2018-05-10T23:40:36.664Z,72.93
2018-05-10T23:43:04.981Z,73.81
2018-05-10T23:45:34.013Z,73.66
2018-05-10T23:48:02.257Z,74.11
2018-05-10T23:50:30.511Z,74.17
2018-05-10T23:52:58.751Z,74.28
2018-05-10T23:55:27.768Z,75.56
2018-05-10T23:57:56.055Z,76.07
